Time;durP1;ratioP1;P1;durP2;ratioP2;P2;SDS_P1;SDS_P2;PMS_P1;PMS_P2;Temp;Humidity;BMP_temperature;BMP_pressure;BME280_temperature;BME280_humidity;BME280_pressure;Samples;Min_cycle;Max_cycle;Signal;HPM_P1;HPM_P2
2023/04/17 00:00:05;;;;;;;21.57;13.80;;;8.40;99.90;;;;;;5101951;28;20669;-80
2023/04/17 00:02:38;;;;;;;19.87;12.97;;;8.40;99.90;;;;;;5088177;28;20242;-80
2023/04/17 00:05:06;;;;;;;20.10;13.30;;;8.40;99.90;;;;;;5097959;28;20221;-79
2023/04/17 00:07:33;;;;;;;23.53;13.37;;;8.50;99.90;;;;;;5091312;28;20241;-80
2023/04/17 00:10:00;;;;;;;20.67;14.40;;;8.30;99.90;;;;;;5103379;28;20213;-78
2023/04/17 00:12:27;;;;;;;22.30;14.03;;;8.40;99.90;;;;;;5101173;28;20201;-79
2023/04/17 00:14:54;;;;;;;21.00;13.57;;;8.40;99.90;;;;;;5104692;28;20221;-80
2023/04/17 00:17:20;;;;;;;21.33;13.67;;;8.40;99.90;;;;;;5096974;28;20206;-80
2023/04/17 00:19:49;;;;;;;22.10;13.50;;;8.30;99.90;;;;;;5084452;28;20202;-79
2023/04/17 00:22:16;;;;;;;21.70;13.77;;;8.30;99.90;;;;;;5083846;28;20206;-80
2023/04/17 00:24:43;;;;;;;20.57;13.30;;;8.30;99.90;;;;;;5094524;28;20841;-79
2023/04/17 00:27:09;;;;;;;20.60;14.07;;;8.30;99.90;;;;;;5089574;28;20213;-78
2023/04/17 00:29:36;;;;;;;21.47;13.83;;;8.20;99.90;;;;;;5085850;28;20208;-80
2023/04/17 00:32:03;;;;;;;21.70;14.07;;;8.20;99.90;;;;;;5105377;28;20205;-79
2023/04/17 00:34:30;;;;;;;21.73;13.13;;;8.20;99.90;;;;;;5104965;28;20280;-78
2023/04/17 00:36:59;;;;;;;22.00;13.37;;;8.10;99.90;;;;;;5088392;28;20216;-79
2023/04/17 00:39:26;;;;;;;24.53;14.10;;;8.10;99.90;;;;;;5084917;28;20229;-80
2023/04/17 00:41:52;;;;;;;24.77;14.17;;;8.10;99.90;;;;;;5084920;28;20388;-78
2023/04/17 00:44:19;;;;;;;20.53;14.07;;;8.00;99.90;;;;;;5082986;28;20226;-80
2023/04/17 00:46:46;;;;;;;23.87;13.33;;;7.90;99.90;;;;;;5084347;28;20202;-78
2023/04/17 00:49:14;;;;;;;20.70;12.77;;;7.80;99.90;;;;;;5095029;28;20592;-80
2023/04/17 00:51:41;;;;;;;21.13;14.10;;;7.90;99.90;;;;;;5099293;28;20202;-77
2023/04/17 00:54:09;;;;;;;23.03;13.03;;;7.90;99.90;;;;;;5104021;28;20225;-77
2023/04/17 00:56:36;;;;;;;21.97;15.07;;;7.80;99.90;;;;;;5104313;28;20217;-78
2023/04/17 00:59:05;;;;;;;21.67;13.67;;;7.80;99.90;;;;;;5104174;28;20201;-80
2023/04/17 01:01:32;;;;;;;24.63;13.97;;;7.80;99.90;;;;;;5103572;28;20563;-80
2023/04/17 01:04:00;;;;;;;20.23;12.93;;;7.70;99.90;;;;;;5104047;28;20228;-79
2023/04/17 01:06:27;;;;;;;21.20;13.70;;;7.70;99.90;;;;;;5103910;28;20661;-77
2023/04/17 01:08:54;;;;;;;23.67;13.77;;;7.70;99.90;;;;;;5103810;28;20228;-80
2023/04/17 01:11:22;;;;;;;20.80;13.53;;;7.70;99.90;;;;;;5095254;28;20292;-77
2023/04/17 01:13:50;;;;;;;21.50;13.13;;;7.70;99.90;;;;;;5103156;28;20685;-78
2023/04/17 01:16:17;;;;;;;22.23;14.10;;;7.70;99.90;;;;;;5087628;28;20202;-79
2023/04/17 01:18:45;;;;;;;21.00;12.60;;;7.70;99.90;;;;;;5082704;28;20574;-79
2023/04/17 01:21:12;;;;;;;22.10;14.10;;;7.60;99.90;;;;;;5090873;28;20200;-78
2023/04/17 01:23:45;;;;;;;20.83;13.90;;;7.60;99.90;;;;;;5103035;28;20312;-78
2023/04/17 01:26:17;;;;;;;21.77;13.73;;;7.50;99.90;;;;;;5103808;28;20711;-77
2023/04/17 01:28:44;;;;;;;22.13;13.50;;;7.50;99.90;;;;;;5104336;28;20182;-77
2023/04/17 01:31:15;;;;;;;20.47;13.40;;;7.50;99.90;;;;;;5103128;28;20205;-78
2023/04/17 01:33:42;;;;;;;22.70;13.27;;;7.50;99.90;;;;;;5102739;28;20194;-78
2023/04/17 01:36:14;;;;;;;23.20;14.40;;;7.50;99.90;;;;;;5102713;28;20232;-78
2023/04/17 01:38:41;;;;;;;22.07;13.77;;;7.50;99.90;;;;;;5099929;28;20205;-80
2023/04/17 01:41:09;;;;;;;20.97;13.17;;;7.40;99.90;;;;;;5089233;28;20241;-79
2023/04/17 01:43:39;;;;;;;22.03;14.47;;;7.40;99.90;;;;;;5103267;28;20746;-81
2023/04/17 01:46:06;;;;;;;21.03;13.57;;;7.40;99.90;;;;;;5102671;28;20225;-80
2023/04/17 01:48:34;;;;;;;21.30;13.67;;;7.40;99.90;;;;;;5102071;28;20198;-78
2023/04/17 01:51:01;;;;;;;20.17;13.20;;;7.40;99.90;;;;;;5093292;28;20199;-78
2023/04/17 01:53:29;;;;;;;20.20;12.77;;;7.30;99.90;;;;;;5082837;28;20210;-80
2023/04/17 01:55:56;;;;;;;21.63;14.13;;;7.30;99.90;;;;;;5082312;28;20232;-81
2023/04/17 01:58:23;;;;;;;25.07;13.80;;;7.20;99.90;;;;;;5081673;28;20269;-77
2023/04/17 02:00:51;;;;;;;20.70;13.07;;;7.30;99.90;;;;;;5080704;28;20633;-80
2023/04/17 02:03:19;;;;;;;19.07;12.90;;;7.20;99.90;;;;;;5080973;28;20206;-81
2023/04/17 02:05:46;;;;;;;22.07;13.53;;;7.20;99.90;;;;;;5088848;28;20249;-78
2023/04/17 02:08:13;;;;;;;22.40;13.73;;;7.20;99.90;;;;;;5101868;28;20201;-80
2023/04/17 02:10:41;;;;;;;19.17;12.30;;;7.10;99.90;;;;;;5101868;28;20215;-79
2023/04/17 02:13:07;;;;;;;20.77;12.63;;;7.10;99.90;;;;;;5101620;28;20197;-78
2023/04/17 02:15:34;;;;;;;20.07;12.83;;;7.10;99.90;;;;;;5101882;28;20218;-79
2023/04/17 02:18:04;;;;;;;21.67;13.60;;;7.10;99.90;;;;;;5102357;28;20214;-81
2023/04/17 02:20:31;;;;;;;20.13;12.97;;;7.10;99.90;;;;;;5102982;28;20205;-79
2023/04/17 02:22:59;;;;;;;22.47;13.60;;;7.00;99.90;;;;;;5103168;28;20212;-78
2023/04/17 02:25:26;;;;;;;19.97;12.50;;;7.10;99.90;;;;;;5102832;28;20225;-79
2023/04/17 02:27:53;;;;;;;20.90;13.27;;;7.10;99.90;;;;;;5104683;28;20203;-78
2023/04/17 02:30:21;;;;;;;22.43;13.47;;;7.10;99.90;;;;;;5105561;28;20204;-80
2023/04/17 02:32:49;;;;;;;20.97;13.30;;;7.00;99.90;;;;;;5102199;28;20197;-78
2023/04/17 02:35:17;;;;;;;23.27;13.53;;;7.10;99.90;;;;;;5085946;28;20229;-80
2023/04/17 02:37:44;;;;;;;21.67;13.93;;;7.10;99.90;;;;;;5085317;28;20217;-80
2023/04/17 02:40:11;;;;;;;22.10;13.60;;;7.00;99.90;;;;;;5084395;28;20202;-78
2023/04/17 02:42:38;;;;;;;21.40;13.13;;;7.00;99.90;;;;;;5085156;28;20206;-80
2023/04/17 02:45:06;;;;;;;23.10;13.40;;;7.00;99.90;;;;;;5084616;28;20228;-79
2023/04/17 02:47:33;;;;;;;22.10;14.07;;;7.00;99.90;;;;;;5093720;28;20193;-79
2023/04/17 02:50:00;;;;;;;21.00;12.40;;;7.00;99.90;;;;;;5104984;28;20569;-78
2023/04/17 02:52:28;;;;;;;20.53;13.90;;;7.00;99.90;;;;;;5104548;28;20202;-80
2023/04/17 02:54:55;;;;;;;22.33;13.10;;;6.90;99.90;;;;;;5104787;28;20571;-80
2023/04/17 02:57:22;;;;;;;20.03;12.33;;;6.80;99.90;;;;;;5097566;28;20256;-80
2023/04/17 02:59:49;;;;;;;22.33;13.40;;;6.80;99.90;;;;;;5084550;28;20202;-78
2023/04/17 03:02:20;;;;;;;22.20;14.23;;;6.70;99.90;;;;;;5084543;28;20706;-80
2023/04/17 03:04:47;;;;;;;25.67;14.97;;;6.80;99.90;;;;;;5084824;28;20576;-78
2023/04/17 03:07:17;;;;;;;21.07;13.77;;;6.80;99.90;;;;;;5093010;28;20205;-78
2023/04/17 03:09:45;;;;;;;20.90;13.23;;;6.80;99.90;;;;;;5084399;28;20297;-78
2023/04/17 03:12:12;;;;;;;20.90;13.27;;;6.80;99.90;;;;;;5084495;28;20205;-78
2023/04/17 03:14:39;;;;;;;22.03;13.00;;;6.70;99.90;;;;;;5100133;28;20210;-80
2023/04/17 03:17:06;;;;;;;18.90;12.77;;;6.80;99.90;;;;;;5098616;28;20216;-77
2023/04/17 03:19:33;;;;;;;20.97;13.57;;;6.60;99.90;;;;;;5080135;28;20205;-78
2023/04/17 03:22:00;;;;;;;22.60;13.30;;;6.60;99.90;;;;;;5081494;28;20298;-80
2023/04/17 03:24:27;;;;;;;21.37;14.40;;;6.60;99.90;;;;;;5082087;28;20650;-79
2023/04/17 03:26:56;;;;;;;22.17;12.97;;;6.60;99.90;;;;;;5082142;28;20659;-80
2023/04/17 03:29:23;;;;;;;20.53;13.87;;;6.60;99.90;;;;;;5081495;28;20612;-80
2023/04/17 03:31:50;;;;;;;98.47;89.40;;;6.60;99.90;;;;;;5085094;28;20228;-80
2023/04/17 03:34:17;;;;;;;24.10;17.83;;;6.60;99.90;;;;;;5085461;28;20931;-78
2023/04/17 03:36:44;;;;;;;21.83;14.57;;;6.60;99.90;;;;;;5084773;28;20206;-80
2023/04/17 03:39:12;;;;;;;22.97;14.13;;;6.70;99.90;;;;;;5083484;28;20209;-80
2023/04/17 03:41:39;;;;;;;21.37;13.07;;;6.70;99.90;;;;;;5083572;28;20213;-80
2023/04/17 03:44:08;;;;;;;20.93;13.53;;;6.70;99.90;;;;;;5083311;28;20226;-79
2023/04/17 03:46:35;;;;;;;22.13;13.50;;;6.60;99.90;;;;;;5084326;28;20659;-77
2023/04/17 03:49:02;;;;;;;23.60;14.40;;;6.60;99.90;;;;;;5083930;28;20238;-80
2023/04/17 03:51:30;;;;;;;20.77;14.30;;;6.50;99.90;;;;;;5085048;28;20205;-78
2023/04/17 03:53:57;;;;;;;23.17;14.30;;;6.50;99.90;;;;;;5084271;28;20224;-79
2023/04/17 03:56:24;;;;;;;22.10;13.30;;;6.60;99.90;;;;;;5084266;28;20212;-77
2023/04/17 03:58:51;;;;;;;23.00;13.57;;;6.50;99.90;;;;;;5084469;28;20201;-79
2023/04/17 04:01:21;;;;;;;21.83;13.10;;;6.60;99.90;;;;;;5084781;28;20197;-78
2023/04/17 04:03:48;;;;;;;25.30;13.30;;;6.50;99.90;;;;;;5084606;28;20236;-79
2023/04/17 04:06:19;;;;;;;23.20;14.63;;;6.50;99.90;;;;;;5084313;28;20230;-78
2023/04/17 04:08:45;;;;;;;23.57;14.90;;;6.50;99.90;;;;;;5084263;28;20190;-79
2023/04/17 04:11:12;;;;;;;22.67;13.73;;;6.50;99.90;;;;;;5084358;28;20564;-77
2023/04/17 04:13:39;;;;;;;22.13;13.40;;;6.50;99.90;;;;;;5084407;28;20659;-80
2023/04/17 04:16:06;;;;;;;20.60;13.53;;;6.40;99.90;;;;;;5084852;28;20221;-80
2023/04/17 04:18:35;;;;;;;22.37;13.57;;;6.50;99.90;;;;;;5084629;28;20206;-81
2023/04/17 04:21:01;;;;;;;24.87;14.33;;;6.50;99.90;;;;;;5085559;28;20316;-81
2023/04/17 04:23:29;;;;;;;21.87;13.17;;;6.50;99.90;;;;;;5084944;28;20230;-79
2023/04/17 04:25:56;;;;;;;19.77;12.93;;;6.50;99.90;;;;;;5084108;28;20226;-82
2023/04/17 04:28:26;;;;;;;22.43;13.70;;;6.50;99.90;;;;;;5081981;28;20204;-79
2023/04/17 04:30:54;;;;;;;22.70;13.70;;;6.40;99.90;;;;;;5080749;28;20228;-80
2023/04/17 04:33:21;;;;;;;23.10;14.30;;;6.40;99.90;;;;;;5080843;28;20238;-81
2023/04/17 04:35:50;;;;;;;25.83;14.97;;;6.40;99.90;;;;;;5083463;28;20640;-80
2023/04/17 04:38:17;;;;;;;22.97;14.37;;;6.40;99.90;;;;;;5083351;28;20289;-80
2023/04/17 04:40:50;;;;;;;23.40;13.47;;;6.50;99.90;;;;;;5084526;28;20205;-80
2023/04/17 04:43:17;;;;;;;21.70;13.37;;;6.50;99.90;;;;;;5084624;28;20190;-80
2023/04/17 04:45:44;;;;;;;22.07;13.37;;;6.40;99.90;;;;;;5083964;28;20290;-79
2023/04/17 04:48:11;;;;;;;25.20;13.87;;;6.40;99.90;;;;;;5082931;28;20198;-81
2023/04/17 04:50:38;;;;;;;23.13;14.30;;;6.40;99.90;;;;;;5081384;28;20206;-78
2023/04/17 04:53:06;;;;;;;23.23;12.73;;;6.50;99.90;;;;;;5082155;28;20190;-79
2023/04/17 04:55:32;;;;;;;24.03;13.70;;;6.40;99.90;;;;;;5082169;28;20234;-81
2023/04/17 04:57:59;;;;;;;23.00;13.63;;;6.40;99.90;;;;;;5081766;28;20309;-82
2023/04/17 05:00:26;;;;;;;22.00;12.40;;;6.50;99.90;;;;;;5080513;28;20221;-77
2023/04/17 05:02:53;;;;;;;21.80;13.13;;;6.40;99.90;;;;;;5079937;28;20241;-78
2023/04/17 05:05:20;;;;;;;22.90;13.57;;;6.40;99.90;;;;;;5083451;28;20571;-79
2023/04/17 05:07:47;;;;;;;21.97;14.00;;;6.50;99.90;;;;;;5083231;28;20269;-79
2023/04/17 05:10:15;;;;;;;23.40;14.37;;;6.50;99.90;;;;;;5082728;28;20674;-78
2023/04/17 05:12:43;;;;;;;22.40;13.70;;;6.60;99.90;;;;;;5082923;28;20289;-78
2023/04/17 05:15:10;;;;;;;22.20;13.83;;;6.50;99.90;;;;;;5082982;28;20734;-79
2023/04/17 05:17:37;;;;;;;21.73;13.53;;;6.60;99.90;;;;;;5085943;28;20688;-80
2023/04/17 05:20:07;;;;;;;22.27;13.23;;;6.60;99.90;;;;;;5096553;28;20252;-81
2023/04/17 05:22:34;;;;;;;22.57;12.93;;;6.70;99.90;;;;;;5092851;28;20198;-81
2023/04/17 05:25:01;;;;;;;21.47;12.77;;;6.70;99.90;;;;;;5088932;28;20229;-81
2023/04/17 05:27:29;;;;;;;20.13;12.80;;;6.70;99.90;;;;;;5087259;28;20206;-79
2023/04/17 05:29:56;;;;;;;21.87;13.13;;;6.70;99.90;;;;;;5097431;28;20266;-81
2023/04/17 05:32:22;;;;;;;21.53;13.50;;;6.70;99.90;;;;;;5104342;28;20212;-80
2023/04/17 05:34:49;;;;;;;21.67;12.87;;;6.80;99.90;;;;;;5104216;28;20289;-80
2023/04/17 05:37:16;;;;;;;20.77;13.20;;;6.90;99.90;;;;;;5103812;28;20198;-79
2023/04/17 05:39:43;;;;;;;21.47;13.40;;;6.90;99.90;;;;;;5103959;28;20254;-80
2023/04/17 05:42:10;;;;;;;25.27;13.47;;;7.00;99.90;;;;;;5104424;28;20215;-79
2023/04/17 05:44:38;;;;;;;20.77;13.43;;;7.00;99.90;;;;;;5103638;28;20222;-82
2023/04/17 05:47:05;;;;;;;25.87;14.60;;;7.10;99.90;;;;;;5097599;28;20206;-76
2023/04/17 05:49:32;;;;;;;24.60;14.53;;;7.10;99.90;;;;;;5081846;28;20198;-81
2023/04/17 05:51:58;;;;;;;23.50;13.37;;;7.10;99.90;;;;;;5086197;28;20209;-79
2023/04/17 05:54:26;;;;;;;23.70;14.00;;;7.20;99.90;;;;;;5103619;28;20732;-81
2023/04/17 05:56:53;;;;;;;21.90;13.27;;;7.30;99.90;;;;;;5103611;28;20581;-78
2023/04/17 05:59:20;;;;;;;21.23;12.50;;;7.40;99.90;;;;;;5104093;28;20201;-78
2023/04/17 06:01:49;;;;;;;21.17;12.67;;;7.30;99.90;;;;;;5103678;28;20236;-77
2023/04/17 06:04:16;;;;;;;20.67;12.63;;;7.50;99.90;;;;;;5107091;28;20225;-80
2023/04/17 06:06:43;;;;;;;21.87;12.63;;;7.50;99.90;;;;;;5106711;28;20600;-77
2023/04/17 06:09:10;;;;;;;21.37;11.97;;;7.60;99.90;;;;;;5107024;28;20646;-78
2023/04/17 06:11:37;;;;;;;24.10;13.60;;;7.70;99.90;;;;;;5102848;28;20214;-79
2023/04/17 06:14:03;;;;;;;22.47;12.97;;;7.80;99.90;;;;;;5087324;28;20217;-78
2023/04/17 06:16:30;;;;;;;19.50;12.40;;;7.80;99.90;;;;;;5104796;28;20198;-78
2023/04/17 06:18:58;;;;;;;22.23;13.23;;;7.90;99.90;;;;;;5105833;28;20212;-80
2023/04/17 06:21:26;;;;;;;21.53;12.40;;;7.90;99.90;;;;;;5105339;28;20557;-81
2023/04/17 06:23:53;;;;;;;19.93;11.87;;;8.00;99.90;;;;;;5106014;28;20212;-81
2023/04/17 06:26:20;;;;;;;23.33;12.87;;;8.10;99.90;;;;;;5106062;28;20312;-81
2023/04/17 06:28:46;;;;;;;22.93;13.70;;;8.10;99.90;;;;;;5107003;28;20190;-79
2023/04/17 06:31:13;;;;;;;23.33;13.37;;;8.20;99.90;;;;;;5103235;28;20214;-82
2023/04/17 06:33:40;;;;;;;21.93;12.50;;;8.20;99.90;;;;;;5107730;28;20732;-80
2023/04/17 06:36:09;;;;;;;19.70;12.53;;;8.40;99.90;;;;;;5100764;28;20305;-78
2023/04/17 06:38:36;;;;;;;21.73;12.87;;;8.50;99.90;;;;;;5094053;28;20208;-81
2023/04/17 06:41:03;;;;;;;19.80;12.60;;;8.50;99.90;;;;;;5098406;28;20204;-79
2023/04/17 06:43:30;;;;;;;18.50;12.47;;;8.60;99.90;;;;;;5105051;28;20207;-80
2023/04/17 06:45:57;;;;;;;24.00;14.03;;;8.70;99.90;;;;;;5106070;28;20224;-79
2023/04/17 06:48:24;;;;;;;19.13;12.10;;;8.80;99.90;;;;;;5105563;28;20602;-80
2023/04/17 06:50:51;;;;;;;23.87;12.80;;;8.80;99.90;;;;;;5106933;28;20213;-80
2023/04/17 06:53:20;;;;;;;21.73;12.53;;;9.00;99.90;;;;;;5107890;28;20210;-81
2023/04/17 06:55:47;;;;;;;20.30;11.60;;;9.00;99.90;;;;;;5103718;28;20869;-81
2023/04/17 06:58:14;;;;;;;22.10;13.00;;;9.20;99.90;;;;;;5085474;28;20262;-80
2023/04/17 07:00:41;;;;;;;20.80;12.63;;;9.10;99.90;;;;;;5092074;28;20227;-80
2023/04/17 07:03:07;;;;;;;20.70;12.70;;;9.30;99.90;;;;;;5106137;28;20202;-78
2023/04/17 07:05:34;;;;;;;19.13;12.03;;;9.30;99.90;;;;;;5101733;28;20222;-80
2023/04/17 07:08:01;;;;;;;22.67;12.47;;;9.50;99.90;;;;;;5085633;28;20225;-81
2023/04/17 07:10:29;;;;;;;17.97;12.33;;;9.40;99.90;;;;;;5085526;28;20293;-79
2023/04/17 07:12:56;;;;;;;24.50;13.63;;;9.20;99.90;;;;;;5085211;28;20206;-78
2023/04/17 07:15:23;;;;;;;21.63;12.50;;;9.50;99.90;;;;;;5085212;28;20282;-80
2023/04/17 07:17:50;;;;;;;18.00;12.73;;;9.50;99.90;;;;;;5089204;28;20196;-81
2023/04/17 07:20:17;;;;;;;19.43;13.23;;;9.40;99.90;;;;;;5096923;28;20281;-81
2023/04/17 07:22:44;;;;;;;23.13;12.87;;;10.10;99.90;;;;;;5082960;28;20231;-79
2023/04/17 07:25:10;;;;;;;18.40;11.97;;;10.10;99.90;;;;;;5083466;28;20604;-81
2023/04/17 07:27:39;;;;;;;21.17;12.57;;;10.10;99.90;;;;;;5085669;28;20297;-80
2023/04/17 07:30:07;;;;;;;20.37;11.90;;;9.90;99.90;;;;;;5083073;28;20233;-81
2023/04/17 07:32:34;;;;;;;21.23;11.80;;;9.90;99.90;;;;;;5084354;28;20803;-81
2023/04/17 07:35:01;;;;;;;19.40;11.87;;;9.70;99.90;;;;;;5084091;28;20266;-79
2023/04/17 07:37:28;;;;;;;20.10;12.43;;;9.80;99.90;;;;;;5084615;28;20213;-78
2023/04/17 07:39:55;;;;;;;20.60;12.50;;;10.30;99.90;;;;;;5083990;28;20210;-79
2023/04/17 07:42:21;;;;;;;20.13;12.77;;;10.80;99.90;;;;;;5082723;28;20213;-79
2023/04/17 07:44:50;;;;;;;20.50;12.03;;;10.90;99.90;;;;;;5084988;28;20219;-79
2023/04/17 07:47:16;;;;;;;21.13;13.00;;;10.70;99.90;;;;;;5085377;28;20312;-81
2023/04/17 07:49:47;;;;;;;31.20;13.07;;;10.70;99.90;;;;;;5085144;28;20198;-79
2023/04/17 07:52:16;;;;;;;20.60;12.43;;;10.30;99.90;;;;;;5102098;28;20205;-79
2023/04/17 07:54:43;;;;;;;21.60;11.80;;;10.70;99.90;;;;;;5104946;28;20225;-80
2023/04/17 07:57:11;;;;;;;19.33;12.30;;;10.60;99.90;;;;;;5097793;28;20263;-80
2023/04/17 07:59:37;;;;;;;19.90;12.27;;;10.90;99.90;;;;;;5102768;28;20204;-80
2023/04/17 08:02:06;;;;;;;20.73;12.23;;;11.10;99.90;;;;;;5095780;28;20210;-80
2023/04/17 08:04:33;;;;;;;19.70;12.33;;;11.00;99.90;;;;;;5103468;28;20277;-80
2023/04/17 08:06:59;;;;;;;15.90;11.20;;;11.30;99.90;;;;;;5094301;28;20667;-81
2023/04/17 08:09:26;;;;;;;20.27;11.80;;;11.40;99.90;;;;;;5096091;28;20269;-80
2023/04/17 08:11:53;;;;;;;18.63;11.77;;;11.50;99.90;;;;;;5092281;28;20197;-79
2023/04/17 08:14:20;;;;;;;20.80;12.40;;;11.50;99.90;;;;;;5086622;28;20575;-81
2023/04/17 08:16:47;;;;;;;17.37;11.93;;;11.50;99.90;;;;;;5103955;28;20193;-81
2023/04/17 08:19:15;;;;;;;19.70;12.03;;;11.30;99.90;;;;;;5103620;28;20717;-80
2023/04/17 08:21:42;;;;;;;16.90;11.30;;;11.40;99.90;;;;;;5102850;28;20237;-80
2023/04/17 08:24:09;;;;;;;17.50;11.30;;;11.40;99.90;;;;;;5102424;28;20232;-78
2023/04/17 08:26:36;;;;;;;17.20;11.63;;;11.40;99.90;;;;;;5091566;28;20228;-80
2023/04/17 08:29:03;;;;;;;18.17;12.23;;;11.10;99.90;;;;;;5082521;28;20228;-78
2023/04/17 08:31:30;;;;;;;19.97;13.10;;;11.10;99.90;;;;;;5081481;28;20198;-78
2023/04/17 08:33:59;;;;;;;18.97;11.67;;;11.70;99.90;;;;;;5081429;28;20298;-78
2023/04/17 08:36:27;;;;;;;17.33;12.13;;;11.70;99.90;;;;;;5083631;28;20674;-79
2023/04/17 08:38:55;;;;;;;20.50;12.03;;;11.70;99.90;;;;;;5083710;28;20643;-79
2023/04/17 08:41:26;;;;;;;17.47;10.87;;;12.00;99.90;;;;;;5084424;28;20214;-79
2023/04/17 08:43:56;;;;;;;19.77;11.80;;;12.10;99.90;;;;;;5080769;28;20710;-79
2023/04/17 08:46:23;;;;;;;17.53;10.90;;;12.70;99.90;;;;;;5081964;28;20218;-80
2023/04/17 08:48:50;;;;;;;19.40;11.77;;;12.40;99.90;;;;;;5101475;28;20296;-78
2023/04/17 08:51:17;;;;;;;16.87;11.63;;;12.50;99.90;;;;;;5103526;28;20657;-78
2023/04/17 08:53:45;;;;;;;17.60;11.60;;;12.70;99.90;;;;;;5094344;28;20555;-80
2023/04/17 08:56:12;;;;;;;19.57;11.70;;;12.80;99.90;;;;;;5086469;28;20210;-80
2023/04/17 08:58:38;;;;;;;16.60;10.53;;;13.20;99.90;;;;;;5100466;28;20194;-78
2023/04/17 09:01:09;;;;;;;16.67;11.63;;;13.00;99.90;;;;;;5102044;28;20657;-78
2023/04/17 09:03:40;;;;;;;17.03;11.10;;;13.20;99.90;;;;;;5101737;28;20223;-78
2023/04/17 09:06:08;;;;;;;17.70;11.63;;;13.90;99.90;;;;;;5101581;28;20225;-80
2023/04/17 09:08:35;;;;;;;15.63;10.83;;;14.20;99.90;;;;;;5091805;28;20205;-79
2023/04/17 09:11:03;;;;;;;18.73;12.30;;;14.80;99.90;;;;;;5096765;28;20236;-81
2023/04/17 09:13:40;;;;;;;17.53;11.30;;;13.90;99.90;;;;;;5086153;28;20265;-80
2023/04/17 09:16:09;;;;;;;16.83;11.30;;;13.30;99.90;;;;;;5082182;28;20217;-78
2023/04/17 09:18:37;;;;;;;16.03;10.63;;;13.50;99.90;;;;;;5081775;28;20202;-78
2023/04/17 09:21:05;;;;;;;17.93;10.87;;;13.40;99.90;;;;;;5084125;28;20202;-77
2023/04/17 09:23:47;;;;;;;19.57;11.33;;;13.50;99.90;;;;;;5091475;28;20202;-78
2023/04/17 09:26:16;;;;;;;15.83;10.77;;;13.90;99.90;;;;;;5081545;28;20230;-77
2023/04/17 09:29:03;;;;;;;16.63;10.23;;;14.30;99.90;;;;;;5091200;28;20285;-77
2023/04/17 09:31:33;;;;;;;19.03;9.60;;;14.40;99.90;;;;;;5101260;28;20212;-79
2023/04/17 09:34:01;;;;;;;16.27;10.02;;;14.50;99.90;;;;;;5101098;28;20254;-78
2023/04/17 09:36:29;;;;;;;17.67;10.87;;;13.90;99.90;;;;;;5099469;28;20219;-78
2023/04/17 09:38:58;;;;;;;15.17;10.00;;;13.80;99.90;;;;;;5100150;28;20568;-79
2023/04/17 09:41:27;;;;;;;15.90;10.60;;;13.60;99.90;;;;;;5100661;28;20206;-79
2023/04/17 09:43:55;;;;;;;17.50;11.43;;;13.60;99.90;;;;;;5100666;28;20262;-79
2023/04/17 09:46:36;;;;;;;17.30;11.00;;;13.50;99.90;;;;;;5102379;28;20214;-77
2023/04/17 09:49:13;;;;;;;16.30;10.50;;;13.30;99.90;;;;;;5099384;28;20280;-80
2023/04/17 09:51:40;;;;;;;18.60;11.40;;;13.10;99.90;;;;;;5092090;28;20233;-81
2023/04/17 09:54:10;;;;;;;14.87;9.20;;;13.20;99.90;;;;;;5102235;28;20566;-79
2023/04/17 09:56:38;;;;;;;13.57;9.50;;;13.10;99.90;;;;;;5090869;28;20290;-80
2023/04/17 09:59:07;;;;;;;13.43;9.10;;;12.80;99.90;;;;;;5085040;28;20200;-79
2023/04/17 10:01:36;;;;;;;15.00;10.03;;;12.60;99.90;;;;;;5088692;28;20222;-78
2023/04/17 10:04:04;;;;;;;16.57;10.17;;;12.70;99.90;;;;;;5082724;28;20210;-78
2023/04/17 10:06:33;;;;;;;17.70;11.30;;;12.50;99.90;;;;;;5081092;28;20281;-78
2023/04/17 10:09:01;;;;;;;15.03;9.87;;;12.60;99.90;;;;;;5080752;28;20237;-80
2023/04/17 10:11:30;;;;;;;15.87;10.27;;;12.70;99.90;;;;;;5080342;28;20245;-81
2023/04/17 10:14:06;;;;;;;16.87;10.53;;;12.60;99.90;;;;;;5082347;28;20213;-78
2023/04/17 10:16:36;;;;;;;14.83;9.80;;;12.70;99.90;;;;;;5082030;28;20221;-83
2023/04/17 10:19:26;;;;;;;15.23;10.00;;;12.80;99.90;;;;;;5079703;28;20206;-79
2023/04/17 10:22:31;;;;;;;14.33;9.43;;;13.00;99.90;;;;;;5079584;28;20252;-80
2023/04/17 10:25:19;;;;;;;14.80;9.90;;;12.90;99.90;;;;;;5080204;28;20221;-80
2023/04/17 10:27:49;;;;;;;18.07;10.93;;;13.00;99.90;;;;;;5079715;28;20237;-78
2023/04/17 10:30:19;;;;;;;14.47;9.77;;;13.00;99.90;;;;;;5080563;28;20874;-80
2023/04/17 10:32:47;;;;;;;15.87;10.33;;;13.00;99.90;;;;;;5080993;28;20555;-78
2023/04/17 10:35:36;;;;;;;15.20;10.40;;;13.10;99.90;;;;;;5079803;28;20262;-78
2023/04/17 10:38:07;;;;;;;18.03;10.10;;;13.30;99.90;;;;;;5080985;28;20720;-80
2023/04/17 10:40:35;;;;;;;13.80;8.97;;;13.90;99.90;;;;;;5080672;28;20225;-79
2023/04/17 10:43:04;;;;;;;16.33;9.63;;;14.10;99.90;;;;;;5081943;28;20327;-80
2023/04/17 10:45:55;;;;;;;14.87;9.30;;;14.90;99.90;;;;;;5082785;28;20222;-78
2023/04/17 10:48:25;;;;;;;15.63;9.17;;;14.90;99.90;;;;;;5081585;28;20259;-79
2023/04/17 10:50:52;;;;;;;13.43;8.80;;;14.80;99.90;;;;;;5084822;28;20207;-79
2023/04/17 10:53:39;;;;;;;12.73;8.70;;;14.90;99.90;;;;;;5085475;28;20206;-79
2023/04/17 10:56:06;;;;;;;12.77;8.73;;;15.10;99.90;;;;;;5084477;28;20269;-80
2023/04/17 10:58:36;;;;;;;16.23;8.93;;;14.80;99.90;;;;;;5085362;28;20216;-79
2023/04/17 11:01:10;;;;;;;13.20;8.93;;;14.50;99.90;;;;;;5087422;28;20229;-78
2023/04/17 11:03:37;;;;;;;14.75;8.85;;;14.20;99.90;;;;;;5087466;28;20186;-78
2023/04/17 11:06:05;;;;;;;13.47;8.53;;;14.50;99.90;;;;;;5085985;28;20233;-79
2023/04/17 11:08:32;;;;;;;14.47;9.10;;;14.10;99.90;;;;;;5083972;28;20210;-79
2023/04/17 11:10:58;;;;;;;13.40;8.57;;;14.20;99.90;;;;;;5085375;28;20230;-81
2023/04/17 11:13:25;;;;;;;13.83;9.10;;;14.60;99.90;;;;;;5085446;28;20206;-81
2023/04/17 11:15:52;;;;;;;13.98;8.75;;;15.10;99.90;;;;;;5083864;28;20321;-79
2023/04/17 11:18:22;;;;;;;14.57;9.47;;;14.20;99.90;;;;;;5085071;28;20198;-81
2023/04/17 11:20:50;;;;;;;14.77;9.67;;;14.30;99.90;;;;;;5086029;28;20270;-81
2023/04/17 11:23:17;;;;;;;15.57;9.47;;;14.20;99.90;;;;;;5086117;28;20232;-79
2023/04/17 11:25:46;;;;;;;12.00;8.57;;;14.30;99.90;;;;;;5086133;28;20281;-78
2023/04/17 11:28:12;;;;;;;16.40;9.47;;;14.20;99.90;;;;;;5083155;28;20655;-78
2023/04/17 11:30:43;;;;;;;13.63;8.70;;;14.10;99.90;;;;;;5083368;28;20281;-81
2023/04/17 11:33:11;;;;;;;12.43;8.73;;;14.10;99.90;;;;;;5083789;28;20654;-80
2023/04/17 11:35:41;;;;;;;13.27;8.00;;;14.30;99.90;;;;;;5083407;28;20400;-81
2023/04/17 11:38:13;;;;;;;12.77;8.10;;;14.20;99.90;;;;;;5082825;28;20247;-79
2023/04/17 11:40:48;;;;;;;14.17;8.97;;;14.10;99.90;;;;;;5080940;28;20206;-80
2023/04/17 11:43:15;;;;;;;11.07;7.60;;;13.90;99.90;;;;;;5086072;28;20193;-79
2023/04/17 11:45:44;;;;;;;14.50;8.33;;;13.90;99.90;;;;;;5099161;28;20213;-80
2023/04/17 11:48:15;;;;;;;14.67;9.27;;;14.10;99.90;;;;;;5100125;28;20305;-77
2023/04/17 11:50:44;;;;;;;13.07;9.17;;;14.40;99.90;;;;;;5101018;28;20202;-78
2023/04/17 11:53:15;;;;;;;15.27;9.80;;;14.40;99.90;;;;;;5102073;28;20229;-80
2023/04/17 11:55:42;;;;;;;13.33;9.40;;;14.40;99.90;;;;;;5102570;28;20217;-78
2023/04/17 11:58:11;;;;;;;12.53;8.37;;;14.30;99.90;;;;;;5098911;28;20292;-80
2023/04/17 12:00:39;;;;;;;14.83;9.00;;;14.20;99.90;;;;;;5094006;28;20288;-78
2023/04/17 12:03:31;;;;;;;14.13;9.03;;;14.70;99.90;;;;;;5085201;28;20205;-78
2023/04/17 12:06:00;;;;;;;12.20;8.17;;;14.50;99.90;;;;;;5092915;28;20266;-78
2023/04/17 12:08:27;;;;;;;12.07;7.57;;;14.90;99.90;;;;;;5091294;28;20260;-79
2023/04/17 12:10:54;;;;;;;15.07;9.70;;;14.50;99.90;;;;;;5081541;28;20210;-78
2023/04/17 12:13:20;;;;;;;12.27;8.07;;;14.70;99.90;;;;;;5087519;28;20225;-79
2023/04/17 12:15:47;;;;;;;16.35;9.68;;;14.90;99.90;;;;;;5098819;28;20228;-80
2023/04/17 12:18:14;;;;;;;11.60;8.00;;;15.10;99.90;;;;;;5100387;28;20236;-80
2023/04/17 12:20:42;;;;;;;12.93;8.40;;;14.70;99.90;;;;;;5100603;28;20217;-80
2023/04/17 12:23:10;;;;;;;13.50;8.75;;;14.70;99.90;;;;;;5100310;28;20198;-79
2023/04/17 12:25:37;;;;;;;12.33;8.37;;;14.70;99.90;;;;;;5100271;28;20232;-77
2023/04/17 12:28:04;;;;;;;13.03;8.40;;;14.60;99.90;;;;;;5080744;28;20230;-78
2023/04/17 12:30:32;;;;;;;12.83;8.33;;;14.50;99.90;;;;;;5080402;28;20225;-77
2023/04/17 12:32:59;;;;;;;13.47;8.53;;;14.30;99.90;;;;;;5079750;28;20581;-80
2023/04/17 12:35:27;;;;;;;11.33;7.83;;;14.60;99.90;;;;;;5081253;28;20229;-78
2023/04/17 12:37:53;;;;;;;11.37;8.03;;;14.90;99.90;;;;;;5085368;28;20265;-77
2023/04/17 12:40:23;;;;;;;13.50;8.20;;;14.90;99.90;;;;;;5101329;28;20205;-77